Pagrindinis puslapis
METAR-TAF:

METAR-TAF

Oro uostai :

Krotonė, Italija

platuma: 39-00N, ilguma: 017-04E, Aukštis: 155 m

Dabartinis oras

Ataskaita buvo paskelbta 3 valandos ir 9 minutes, ne 18:50 UTC
Vėjas 4 kt iš Pietvakarių
Temperatūra 8°C
Drėgmė 87%
Slėgis 1021 hPa
Matomumas 10 km arba daugiau
nėra debesų žemiau 1500 m ir nėra kamuolinių lietaus debesų

METAR: LIBC 271850Z 22004KT CAVOK 08/06 Q1021

Laikas: 22:59 (21:59 UTC)

Prognozė

Ataskaita buvo paskelbta 4 valandos ir 59 minutes, ne 17:00 UTC
Prognozė galioja nuo 27 metu 18 UTC su 28 metu 18 UTC
Vėjas 8 kt iš Šiaurės/Šiaurės Vakarų
Matomumas 10 km arba daugiau
Išsisklaidę debesys ne aukštis 3000 ft
Tapsmas
nuo 28 metu 08 UTC su 28 metu 10 UTC
Vėjas 13 kt iš Vakarų/Pietvakarių

TAF: LIBC 271700Z 2718/2818 34008KT 9999 SCT030 BECMG 2808/2810 24013KT

Orai ataskaitas ir orų prognozės (METAR, TAF).

turimą stotys yra geltonos ir raudonos taškus žemėlapyje.

Perkelti pele per norėdami pamatyti stoties vardą.

Tada spustelėkite, norėdami matyti oro stebėjimo ir prognozės.

Norėdami pakeisti žemėlapį: spustelėkite ant žalios mygtukų su juodo kryžiaus žemyn,; žalią mygtuką su brūkšneliu, jei norite nutolinti; arba žalių rodyklių gretimoms žemėlapius.


METAR-TAF: